Terminal Aerodrome Forecast
Issued by NWS

Home | Current Version | Previous Version | Text Only | Print | Product List | Glossary On
Versions: 1 2 3 4 5 6 7 8 9 10 11 12 13 14 15 16 17 18 19 20 21 22 23 24 25 26 27 28 29 30 31 32 33 34 35 36 37 38 39 40 41 42 43
000
FTAK31 PAFA 192019 AAB
TAFAOR
TAF AMD
PAOR 192019Z 1920/2018 00000KT 4SM -SN FEW004 BKN023 OVC035
      TEMPO 1920/1924 1SM -SN BR
     FM200500 00000KT 3SM -SHSN BR OVC025
     FM201400 00000KT 5SM BR OVC050=

USA.gov is the U.S. government's official web portal to all federal, state and local government web resources and services.